sensor_id;sensor_type;location;lat;lon;timestamp;temperature;humidity
15630;DHT22;7914;50.842;0.166;2023-03-14T00:01:58;9.30;100.00
15630;DHT22;7914;50.842;0.166;2023-03-14T00:04:24;9.30;100.00
15630;DHT22;7914;50.842;0.166;2023-03-14T00:06:50;9.30;100.00
15630;DHT22;7914;50.842;0.166;2023-03-14T00:09:17;9.30;100.00
15630;DHT22;7914;50.842;0.166;2023-03-14T00:11:42;9.30;100.00
15630;DHT22;7914;50.842;0.166;2023-03-14T00:14:08;9.30;100.00
15630;DHT22;7914;50.842;0.166;2023-03-14T00:16:34;9.30;100.00
15630;DHT22;7914;50.842;0.166;2023-03-14T00:19:00;9.30;100.00
15630;DHT22;7914;50.842;0.166;2023-03-14T00:21:27;9.20;100.00
15630;DHT22;7914;50.842;0.166;2023-03-14T00:23:53;9.30;100.00
15630;DHT22;7914;50.842;0.166;2023-03-14T00:26:20;9.30;100.00
15630;DHT22;7914;50.842;0.166;2023-03-14T00:28:47;9.30;100.00
15630;DHT22;7914;50.842;0.166;2023-03-14T00:31:16;9.30;100.00
15630;DHT22;7914;50.842;0.166;2023-03-14T00:33:43;9.30;100.00
15630;DHT22;7914;50.842;0.166;2023-03-14T00:36:12;9.30;100.00
15630;DHT22;7914;50.842;0.166;2023-03-14T00:38:39;9.40;100.00
15630;DHT22;7914;50.842;0.166;2023-03-14T00:41:10;9.40;100.00
15630;DHT22;7914;50.842;0.166;2023-03-14T00:43:37;9.40;100.00
15630;DHT22;7914;50.842;0.166;2023-03-14T00:46:03;9.30;100.00
15630;DHT22;7914;50.842;0.166;2023-03-14T00:48:29;9.40;100.00
15630;DHT22;7914;50.842;0.166;2023-03-14T00:50:55;9.30;100.00
15630;DHT22;7914;50.842;0.166;2023-03-14T00:53:21;9.20;100.00
15630;DHT22;7914;50.842;0.166;2023-03-14T00:55:47;9.20;100.00
15630;DHT22;7914;50.842;0.166;2023-03-14T00:58:14;9.20;100.00
15630;DHT22;7914;50.842;0.166;2023-03-14T01:00:41;9.30;100.00
15630;DHT22;7914;50.842;0.166;2023-03-14T01:03:08;9.40;100.00
15630;DHT22;7914;50.842;0.166;2023-03-14T01:05:36;9.40;100.00
15630;DHT22;7914;50.842;0.166;2023-03-14T01:08:02;9.40;100.00
15630;DHT22;7914;50.842;0.166;2023-03-14T01:10:28;9.40;100.00
15630;DHT22;7914;50.842;0.166;2023-03-14T01:12:55;9.30;100.00
15630;DHT22;7914;50.842;0.166;2023-03-14T01:15:21;9.30;100.00
15630;DHT22;7914;50.842;0.166;2023-03-14T01:17:48;9.20;100.00
15630;DHT22;7914;50.842;0.166;2023-03-14T01:20:14;9.20;100.00
15630;DHT22;7914;50.842;0.166;2023-03-14T01:22:41;9.30;100.00
15630;DHT22;7914;50.842;0.166;2023-03-14T01:25:11;9.20;100.00
15630;DHT22;7914;50.842;0.166;2023-03-14T01:27:37;9.20;100.00
15630;DHT22;7914;50.842;0.166;2023-03-14T01:30:05;9.10;100.00
15630;DHT22;7914;50.842;0.166;2023-03-14T01:32:34;9.20;100.00
15630;DHT22;7914;50.842;0.166;2023-03-14T01:35:01;9.20;100.00
15630;DHT22;7914;50.842;0.166;2023-03-14T01:37:28;9.10;100.00
15630;DHT22;7914;50.842;0.166;2023-03-14T01:39:54;9.20;100.00
15630;DHT22;7914;50.842;0.166;2023-03-14T01:42:20;9.20;100.00
15630;DHT22;7914;50.842;0.166;2023-03-14T01:44:50;9.20;100.00
15630;DHT22;7914;50.842;0.166;2023-03-14T01:47:18;9.20;100.00
15630;DHT22;7914;50.842;0.166;2023-03-14T01:49:45;9.20;100.00
15630;DHT22;7914;50.842;0.166;2023-03-14T01:52:30;9.20;100.00
15630;DHT22;7914;50.842;0.166;2023-03-14T01:55:06;9.10;100.00
15630;DHT22;7914;50.842;0.166;2023-03-14T01:57:47;9.10;100.00
15630;DHT22;7914;50.842;0.166;2023-03-14T02:00:19;9.20;100.00
15630;DHT22;7914;50.842;0.166;2023-03-14T02:02:48;9.20;100.00
15630;DHT22;7914;50.842;0.166;2023-03-14T02:05:39;9.20;100.00
15630;DHT22;7914;50.842;0.166;2023-03-14T02:08:11;9.30;100.00
15630;DHT22;7914;50.842;0.166;2023-03-14T02:10:42;9.40;100.00
15630;DHT22;7914;50.842;0.166;2023-03-14T02:13:10;9.40;100.00
15630;DHT22;7914;50.842;0.166;2023-03-14T02:15:36;9.30;100.00
15630;DHT22;7914;50.842;0.166;2023-03-14T02:18:05;9.30;100.00
15630;DHT22;7914;50.842;0.166;2023-03-14T02:23:33;9.40;100.00
15630;DHT22;7914;50.842;0.166;2023-03-14T02:26:19;9.40;100.00
15630;DHT22;7914;50.842;0.166;2023-03-14T02:28:46;9.40;100.00
15630;DHT22;7914;50.842;0.166;2023-03-14T02:31:12;9.10;100.00
15630;DHT22;7914;50.842;0.166;2023-03-14T02:33:39;8.50;100.00
15630;DHT22;7914;50.842;0.166;2023-03-14T02:36:09;8.10;100.00
15630;DHT22;7914;50.842;0.166;2023-03-14T02:41:23;7.80;100.00
15630;DHT22;7914;50.842;0.166;2023-03-14T02:43:50;7.70;100.00
15630;DHT22;7914;50.842;0.166;2023-03-14T02:46:20;7.60;100.00
15630;DHT22;7914;50.842;0.166;2023-03-14T02:49:08;7.50;100.00
15630;DHT22;7914;50.842;0.166;2023-03-14T02:51:36;7.50;100.00
15630;DHT22;7914;50.842;0.166;2023-03-14T02:54:03;7.40;100.00
15630;DHT22;7914;50.842;0.166;2023-03-14T02:56:29;7.40;100.00
15630;DHT22;7914;50.842;0.166;2023-03-14T02:58:54;7.30;100.00
15630;DHT22;7914;50.842;0.166;2023-03-14T03:01:20;7.40;100.00
15630;DHT22;7914;50.842;0.166;2023-03-14T03:03:46;7.30;100.00
15630;DHT22;7914;50.842;0.166;2023-03-14T03:06:13;7.30;100.00
15630;DHT22;7914;50.842;0.166;2023-03-14T03:08:40;7.30;100.00
15630;DHT22;7914;50.842;0.166;2023-03-14T03:11:06;7.20;100.00
15630;DHT22;7914;50.842;0.166;2023-03-14T03:13:31;7.20;100.00
15630;DHT22;7914;50.842;0.166;2023-03-14T03:15:57;7.20;100.00
15630;DHT22;7914;50.842;0.166;2023-03-14T03:18:23;7.20;100.00
15630;DHT22;7914;50.842;0.166;2023-03-14T03:20:49;7.20;100.00
15630;DHT22;7914;50.842;0.166;2023-03-14T03:23:14;7.20;100.00
15630;DHT22;7914;50.842;0.166;2023-03-14T03:25:41;7.10;100.00
15630;DHT22;7914;50.842;0.166;2023-03-14T03:28:08;7.00;100.00
15630;DHT22;7914;50.842;0.166;2023-03-14T03:30:38;6.90;100.00
15630;DHT22;7914;50.842;0.166;2023-03-14T03:33:04;6.90;100.00
15630;DHT22;7914;50.842;0.166;2023-03-14T03:35:29;6.90;100.00
15630;DHT22;7914;50.842;0.166;2023-03-14T03:37:55;6.70;100.00
15630;DHT22;7914;50.842;0.166;2023-03-14T03:40:21;6.70;100.00
15630;DHT22;7914;50.842;0.166;2023-03-14T03:42:46;6.60;100.00
15630;DHT22;7914;50.842;0.166;2023-03-14T03:45:12;6.50;100.00
15630;DHT22;7914;50.842;0.166;2023-03-14T03:47:39;6.50;100.00
15630;DHT22;7914;50.842;0.166;2023-03-14T03:50:05;6.50;100.00
15630;DHT22;7914;50.842;0.166;2023-03-14T03:52:31;6.50;100.00
15630;DHT22;7914;50.842;0.166;2023-03-14T03:54:57;6.40;100.00
15630;DHT22;7914;50.842;0.166;2023-03-14T03:57:23;6.40;100.00
15630;DHT22;7914;50.842;0.166;2023-03-14T03:59:49;6.40;100.00
15630;DHT22;7914;50.842;0.166;2023-03-14T04:02:14;6.40;99.80
15630;DHT22;7914;50.842;0.166;2023-03-14T04:04:40;6.40;99.00
15630;DHT22;7914;50.842;0.166;2023-03-14T04:07:06;6.30;97.60
15630;DHT22;7914;50.842;0.166;2023-03-14T04:09:31;6.20;96.40
15630;DHT22;7914;50.842;0.166;2023-03-14T04:11:57;6.20;97.20
15630;DHT22;7914;50.842;0.166;2023-03-14T04:14:23;6.10;96.70
15630;DHT22;7914;50.842;0.166;2023-03-14T04:16:49;6.10;98.20
15630;DHT22;7914;50.842;0.166;2023-03-14T04:19:15;6.00;97.10
15630;DHT22;7914;50.842;0.166;2023-03-14T04:21:40;6.10;95.00
15630;DHT22;7914;50.842;0.166;2023-03-14T04:24:10;6.00;94.40
15630;DHT22;7914;50.842;0.166;2023-03-14T04:26:36;6.00;93.00
15630;DHT22;7914;50.842;0.166;2023-03-14T04:29:02;5.90;93.40
15630;DHT22;7914;50.842;0.166;2023-03-14T04:31:28;5.80;93.30
15630;DHT22;7914;50.842;0.166;2023-03-14T04:33:53;5.90;94.80
15630;DHT22;7914;50.842;0.166;2023-03-14T04:36:19;5.90;94.90
15630;DHT22;7914;50.842;0.166;2023-03-14T04:38:46;5.80;94.00
15630;DHT22;7914;50.842;0.166;2023-03-14T04:41:14;5.80;92.40
15630;DHT22;7914;50.842;0.166;2023-03-14T04:43:40;5.70;92.40
15630;DHT22;7914;50.842;0.166;2023-03-14T04:46:05;5.70;92.20
15630;DHT22;7914;50.842;0.166;2023-03-14T04:48:31;5.60;91.90
15630;DHT22;7914;50.842;0.166;2023-03-14T04:50:57;5.60;91.30
15630;DHT22;7914;50.842;0.166;2023-03-14T04:53:23;5.50;89.80
15630;DHT22;7914;50.842;0.166;2023-03-14T04:55:50;5.50;91.50
15630;DHT22;7914;50.842;0.166;2023-03-14T04:58:17;5.50;90.70
15630;DHT22;7914;50.842;0.166;2023-03-14T05:00:44;5.40;89.20
15630;DHT22;7914;50.842;0.166;2023-03-14T05:03:09;5.40;89.20
15630;DHT22;7914;50.842;0.166;2023-03-14T05:05:35;5.30;89.50
15630;DHT22;7914;50.842;0.166;2023-03-14T05:08:01;5.30;90.30
15630;DHT22;7914;50.842;0.166;2023-03-14T05:10:28;5.20;89.40
15630;DHT22;7914;50.842;0.166;2023-03-14T05:12:54;5.20;87.80
15630;DHT22;7914;50.842;0.166;2023-03-14T05:15:20;5.20;86.70
15630;DHT22;7914;50.842;0.166;2023-03-14T05:17:45;5.10;87.40
15630;DHT22;7914;50.842;0.166;2023-03-14T05:20:12;5.10;85.60
15630;DHT22;7914;50.842;0.166;2023-03-14T05:22:41;5.10;85.20
15630;DHT22;7914;50.842;0.166;2023-03-14T05:25:07;5.10;85.80
15630;DHT22;7914;50.842;0.166;2023-03-14T05:27:33;5.00;85.50
15630;DHT22;7914;50.842;0.166;2023-03-14T05:29:59;5.00;85.60
15630;DHT22;7914;50.842;0.166;2023-03-14T05:32:25;4.90;84.80
15630;DHT22;7914;50.842;0.166;2023-03-14T05:34:51;5.00;85.60
15630;DHT22;7914;50.842;0.166;2023-03-14T05:37:16;4.90;86.00
15630;DHT22;7914;50.842;0.166;2023-03-14T05:39:42;4.90;86.30
15630;DHT22;7914;50.842;0.166;2023-03-14T05:42:08;4.90;85.90
15630;DHT22;7914;50.842;0.166;2023-03-14T05:44:33;4.80;86.20
15630;DHT22;7914;50.842;0.166;2023-03-14T05:46:59;4.70;85.70
15630;DHT22;7914;50.842;0.166;2023-03-14T05:49:25;4.70;86.50
15630;DHT22;7914;50.842;0.166;2023-03-14T05:51:51;4.70;87.90
15630;DHT22;7914;50.842;0.166;2023-03-14T05:54:17;4.70;87.30
15630;DHT22;7914;50.842;0.166;2023-03-14T05:56:42;4.60;87.70
15630;DHT22;7914;50.842;0.166;2023-03-14T05:59:08;4.60;88.20
15630;DHT22;7914;50.842;0.166;2023-03-14T06:01:34;4.50;88.50
15630;DHT22;7914;50.842;0.166;2023-03-14T06:04:00;4.50;89.30
15630;DHT22;7914;50.842;0.166;2023-03-14T06:06:26;4.40;89.40
15630;DHT22;7914;50.842;0.166;2023-03-14T06:08:51;4.50;89.30
15630;DHT22;7914;50.842;0.166;2023-03-14T06:11:17;4.50;89.20
15630;DHT22;7914;50.842;0.166;2023-03-14T06:13:43;4.40;90.40
15630;DHT22;7914;50.842;0.166;2023-03-14T06:16:09;4.40;90.70
15630;DHT22;7914;50.842;0.166;2023-03-14T06:18:35;4.30;90.30
15630;DHT22;7914;50.842;0.166;2023-03-14T06:21:00;4.30;91.30
15630;DHT22;7914;50.842;0.166;2023-03-14T06:23:26;4.30;91.40
15630;DHT22;7914;50.842;0.166;2023-03-14T06:25:52;4.30;91.20
15630;DHT22;7914;50.842;0.166;2023-03-14T06:28:18;4.40;91.40
15630;DHT22;7914;50.842;0.166;2023-03-14T06:30:43;4.50;91.10
15630;DHT22;7914;50.842;0.166;2023-03-14T06:33:09;4.50;90.20
15630;DHT22;7914;50.842;0.166;2023-03-14T06:35:35;4.50;91.60
15630;DHT22;7914;50.842;0.166;2023-03-14T06:38:01;4.60;91.60
15630;DHT22;7914;50.842;0.166;2023-03-14T06:40:27;4.80;91.10
15630;DHT22;7914;50.842;0.166;2023-03-14T06:42:53;4.90;90.20
15630;DHT22;7914;50.842;0.166;2023-03-14T06:45:19;5.10;90.20
15630;DHT22;7914;50.842;0.166;2023-03-14T06:47:44;5.30;89.20
15630;DHT22;7914;50.842;0.166;2023-03-14T06:50:10;5.50;88.30
15630;DHT22;7914;50.842;0.166;2023-03-14T06:52:36;5.50;87.60
15630;DHT22;7914;50.842;0.166;2023-03-14T06:55:02;5.50;87.60
15630;DHT22;7914;50.842;0.166;2023-03-14T06:57:28;5.60;87.70
15630;DHT22;7914;50.842;0.166;2023-03-14T06:59:54;5.70;87.50
15630;DHT22;7914;50.842;0.166;2023-03-14T07:02:20;5.70;87.30
15630;DHT22;7914;50.842;0.166;2023-03-14T07:04:47;5.70;86.20
15630;DHT22;7914;50.842;0.166;2023-03-14T07:07:13;5.80;86.50
15630;DHT22;7914;50.842;0.166;2023-03-14T07:09:38;5.90;85.90
15630;DHT22;7914;50.842;0.166;2023-03-14T07:12:04;5.90;86.40
15630;DHT22;7914;50.842;0.166;2023-03-14T07:14:30;6.10;85.80
15630;DHT22;7914;50.842;0.166;2023-03-14T07:16:56;6.10;86.60
15630;DHT22;7914;50.842;0.166;2023-03-14T07:19:22;6.30;86.30
15630;DHT22;7914;50.842;0.166;2023-03-14T07:21:47;6.40;85.30
15630;DHT22;7914;50.842;0.166;2023-03-14T07:24:13;6.50;85.70
15630;DHT22;7914;50.842;0.166;2023-03-14T07:26:39;6.50;84.20
15630;DHT22;7914;50.842;0.166;2023-03-14T07:29:05;6.50;84.30
15630;DHT22;7914;50.842;0.166;2023-03-14T07:31:30;6.70;84.10
15630;DHT22;7914;50.842;0.166;2023-03-14T07:33:56;6.80;83.60
15630;DHT22;7914;50.842;0.166;2023-03-14T07:36:22;6.90;84.40
15630;DHT22;7914;50.842;0.166;2023-03-14T07:38:48;7.00;83.60
15630;DHT22;7914;50.842;0.166;2023-03-14T07:41:13;6.90;84.10
15630;DHT22;7914;50.842;0.166;2023-03-14T07:43:39;7.00;83.30
15630;DHT22;7914;50.842;0.166;2023-03-14T07:46:05;7.20;82.10
15630;DHT22;7914;50.842;0.166;2023-03-14T07:48:31;7.20;81.40
15630;DHT22;7914;50.842;0.166;2023-03-14T07:50:57;7.20;80.90
15630;DHT22;7914;50.842;0.166;2023-03-14T07:53:23;7.30;81.20
15630;DHT22;7914;50.842;0.166;2023-03-14T07:55:51;7.40;80.50
15630;DHT22;7914;50.842;0.166;2023-03-14T07:58:17;7.50;80.10
15630;DHT22;7914;50.842;0.166;2023-03-14T08:00:43;7.60;79.60
15630;DHT22;7914;50.842;0.166;2023-03-14T08:03:09;7.60;78.70
15630;DHT22;7914;50.842;0.166;2023-03-14T08:05:36;7.80;78.40
15630;DHT22;7914;50.842;0.166;2023-03-14T08:08:03;7.90;78.60
15630;DHT22;7914;50.842;0.166;2023-03-14T08:10:29;7.80;78.50
15630;DHT22;7914;50.842;0.166;2023-03-14T08:12:56;7.90;78.20
15630;DHT22;7914;50.842;0.166;2023-03-14T08:15:23;7.70;77.60
15630;DHT22;7914;50.842;0.166;2023-03-14T08:17:49;7.50;78.50
15630;DHT22;7914;50.842;0.166;2023-03-14T08:20:19;7.60;78.50
15630;DHT22;7914;50.842;0.166;2023-03-14T08:22:45;7.40;80.30
15630;DHT22;7914;50.842;0.166;2023-03-14T08:25:11;7.70;78.60
15630;DHT22;7914;50.842;0.166;2023-03-14T08:27:36;8.00;78.50
15630;DHT22;7914;50.842;0.166;2023-03-14T08:30:10;8.30;76.70
15630;DHT22;7914;50.842;0.166;2023-03-14T08:32:36;8.30;75.20
15630;DHT22;7914;50.842;0.166;2023-03-14T08:35:04;8.30;76.20
15630;DHT22;7914;50.842;0.166;2023-03-14T08:37:34;8.40;77.30
15630;DHT22;7914;50.842;0.166;2023-03-14T08:40:01;8.50;75.40
15630;DHT22;7914;50.842;0.166;2023-03-14T08:42:30;8.50;75.50
15630;DHT22;7914;50.842;0.166;2023-03-14T08:44:56;8.40;74.20
15630;DHT22;7914;50.842;0.166;2023-03-14T08:47:21;8.30;74.90
15630;DHT22;7914;50.842;0.166;2023-03-14T08:49:47;8.10;75.90
15630;DHT22;7914;50.842;0.166;2023-03-14T08:52:13;7.90;76.20
15630;DHT22;7914;50.842;0.166;2023-03-14T08:54:38;8.00;75.70
15630;DHT22;7914;50.842;0.166;2023-03-14T08:57:04;7.80;75.70
15630;DHT22;7914;50.842;0.166;2023-03-14T08:59:30;7.80;76.80
15630;DHT22;7914;50.842;0.166;2023-03-14T09:01:55;7.70;76.10
15630;DHT22;7914;50.842;0.166;2023-03-14T09:04:21;7.80;77.00
15630;DHT22;7914;50.842;0.166;2023-03-14T09:06:47;8.00;75.90
15630;DHT22;7914;50.842;0.166;2023-03-14T09:09:12;8.10;76.40
15630;DHT22;7914;50.842;0.166;2023-03-14T09:11:39;8.30;76.00
15630;DHT22;7914;50.842;0.166;2023-03-14T09:14:05;8.10;76.10
15630;DHT22;7914;50.842;0.166;2023-03-14T09:16:31;8.20;76.70
15630;DHT22;7914;50.842;0.166;2023-03-14T09:18:58;8.10;76.40
15630;DHT22;7914;50.842;0.166;2023-03-14T09:21:26;8.10;75.70
15630;DHT22;7914;50.842;0.166;2023-03-14T09:23:52;8.20;76.10
15630;DHT22;7914;50.842;0.166;2023-03-14T09:26:18;8.30;76.70
15630;DHT22;7914;50.842;0.166;2023-03-14T09:28:44;8.20;75.70
15630;DHT22;7914;50.842;0.166;2023-03-14T09:31:11;8.10;75.70
15630;DHT22;7914;50.842;0.166;2023-03-14T09:33:38;8.10;76.40
15630;DHT22;7914;50.842;0.166;2023-03-14T09:36:05;8.10;76.40
15630;DHT22;7914;50.842;0.166;2023-03-14T09:38:32;7.90;75.50
15630;DHT22;7914;50.842;0.166;2023-03-14T09:41:00;7.80;75.80
15630;DHT22;7914;50.842;0.166;2023-03-14T09:43:29;7.90;77.00
15630;DHT22;7914;50.842;0.166;2023-03-14T09:45:55;7.90;75.20
15630;DHT22;7914;50.842;0.166;2023-03-14T09:48:27;8.20;76.20
15630;DHT22;7914;50.842;0.166;2023-03-14T09:50:59;8.50;76.60
15630;DHT22;7914;50.842;0.166;2023-03-14T09:53:43;8.50;74.30
15630;DHT22;7914;50.842;0.166;2023-03-14T09:56:21;8.10;74.30
15630;DHT22;7914;50.842;0.166;2023-03-14T09:58:53;8.20;76.20
15630;DHT22;7914;50.842;0.166;2023-03-14T10:01:30;8.30;75.20
15630;DHT22;7914;50.842;0.166;2023-03-14T10:04:00;8.30;75.80
15630;DHT22;7914;50.842;0.166;2023-03-14T10:06:29;8.50;76.80
15630;DHT22;7914;50.842;0.166;2023-03-14T10:08:56;8.40;76.10
15630;DHT22;7914;50.842;0.166;2023-03-14T10:11:23;8.30;75.80
15630;DHT22;7914;50.842;0.166;2023-03-14T10:14:07;8.40;75.70
15630;DHT22;7914;50.842;0.166;2023-03-14T10:16:35;8.40;77.60
15630;DHT22;7914;50.842;0.166;2023-03-14T10:19:14;8.90;75.00
15630;DHT22;7914;50.842;0.166;2023-03-14T10:22:01;8.60;75.30
15630;DHT22;7914;50.842;0.166;2023-03-14T10:24:34;8.40;74.40
15630;DHT22;7914;50.842;0.166;2023-03-14T10:27:01;8.30;76.90
15630;DHT22;7914;50.842;0.166;2023-03-14T10:29:32;8.50;75.60
15630;DHT22;7914;50.842;0.166;2023-03-14T10:32:01;8.60;74.90
15630;DHT22;7914;50.842;0.166;2023-03-14T10:34:30;8.60;75.70
15630;DHT22;7914;50.842;0.166;2023-03-14T10:36:57;8.50;75.80
15630;DHT22;7914;50.842;0.166;2023-03-14T10:39:44;8.60;74.30
15630;DHT22;7914;50.842;0.166;2023-03-14T10:44:41;8.40;75.10
15630;DHT22;7914;50.842;0.166;2023-03-14T10:47:17;8.40;73.80
15630;DHT22;7914;50.842;0.166;2023-03-14T10:49:43;8.10;77.00
15630;DHT22;7914;50.842;0.166;2023-03-14T10:52:26;7.50;82.50
15630;DHT22;7914;50.842;0.166;2023-03-14T10:54:59;7.10;83.90
15630;DHT22;7914;50.842;0.166;2023-03-14T10:57:27;7.00;83.10
15630;DHT22;7914;50.842;0.166;2023-03-14T10:59:53;6.90;84.90
15630;DHT22;7914;50.842;0.166;2023-03-14T11:08:13;7.10;83.90
15630;DHT22;7914;50.842;0.166;2023-03-14T11:10:45;7.30;82.60
15630;DHT22;7914;50.842;0.166;2023-03-14T11:13:30;7.90;84.20
15630;DHT22;7914;50.842;0.166;2023-03-14T11:24:55;8.60;79.00
15630;DHT22;7914;50.842;0.166;2023-03-14T11:27:44;8.40;75.50
15630;DHT22;7914;50.842;0.166;2023-03-14T11:30:25;8.20;77.80
15630;DHT22;7914;50.842;0.166;2023-03-14T11:32:59;8.30;77.30
15630;DHT22;7914;50.842;0.166;2023-03-14T11:35:36;8.60;74.60
15630;DHT22;7914;50.842;0.166;2023-03-14T11:38:29;8.90;74.20
15630;DHT22;7914;50.842;0.166;2023-03-14T11:40:58;9.10;73.80
15630;DHT22;7914;50.842;0.166;2023-03-14T11:43:30;9.10;74.90
15630;DHT22;7914;50.842;0.166;2023-03-14T11:52:40;9.40;70.10
15630;DHT22;7914;50.842;0.166;2023-03-14T11:55:11;8.90;71.20
15630;DHT22;7914;50.842;0.166;2023-03-14T11:57:39;9.30;71.50
15630;DHT22;7914;50.842;0.166;2023-03-14T12:00:18;9.50;70.80
15630;DHT22;7914;50.842;0.166;2023-03-14T12:08:33;8.80;70.40
15630;DHT22;7914;50.842;0.166;2023-03-14T12:14:03;8.60;71.70
15630;DHT22;7914;50.842;0.166;2023-03-14T12:16:46;8.80;70.30
15630;DHT22;7914;50.842;0.166;2023-03-14T12:19:34;9.00;69.80
15630;DHT22;7914;50.842;0.166;2023-03-14T12:24:36;9.30;67.30
15630;DHT22;7914;50.842;0.166;2023-03-14T12:27:04;9.40;69.60
15630;DHT22;7914;50.842;0.166;2023-03-14T12:29:58;9.60;68.20
15630;DHT22;7914;50.842;0.166;2023-03-14T12:32:25;9.60;65.70
15630;DHT22;7914;50.842;0.166;2023-03-14T12:34:51;9.40;67.60
15630;DHT22;7914;50.842;0.166;2023-03-14T12:37:31;9.40;68.60
15630;DHT22;7914;50.842;0.166;2023-03-14T12:40:12;9.20;65.90
15630;DHT22;7914;50.842;0.166;2023-03-14T12:43:00;9.10;66.40
15630;DHT22;7914;50.842;0.166;2023-03-14T12:45:29;9.10;68.90
15630;DHT22;7914;50.842;0.166;2023-03-14T12:53:54;10.40;66.20
15630;DHT22;7914;50.842;0.166;2023-03-14T13:02:13;10.20;64.50
15630;DHT22;7914;50.842;0.166;2023-03-14T13:05:01;10.20;65.30
15630;DHT22;7914;50.842;0.166;2023-03-14T13:07:32;10.50;64.60
15630;DHT22;7914;50.842;0.166;2023-03-14T13:10:05;10.70;62.20
15630;DHT22;7914;50.842;0.166;2023-03-14T13:15:34;10.50;61.00
15630;DHT22;7914;50.842;0.166;2023-03-14T13:18:29;10.10;63.10
15630;DHT22;7914;50.842;0.166;2023-03-14T13:23:34;9.70;64.50
15630;DHT22;7914;50.842;0.166;2023-03-14T13:26:02;9.60;67.30
15630;DHT22;7914;50.842;0.166;2023-03-14T13:28:30;9.70;64.90
15630;DHT22;7914;50.842;0.166;2023-03-14T13:31:00;9.70;63.10
15630;DHT22;7914;50.842;0.166;2023-03-14T13:33:27;9.60;62.70
15630;DHT22;7914;50.842;0.166;2023-03-14T13:36:02;9.60;62.90
15630;DHT22;7914;50.842;0.166;2023-03-14T13:38:31;9.70;61.60
15630;DHT22;7914;50.842;0.166;2023-03-14T13:41:05;9.70;61.70
15630;DHT22;7914;50.842;0.166;2023-03-14T13:43:42;9.70;59.90
15630;DHT22;7914;50.842;0.166;2023-03-14T13:46:22;9.90;60.60
15630;DHT22;7914;50.842;0.166;2023-03-14T13:48:58;10.00;59.30
15630;DHT22;7914;50.842;0.166;2023-03-14T13:51:27;10.20;59.30
15630;DHT22;7914;50.842;0.166;2023-03-14T13:53:57;10.10;60.80
15630;DHT22;7914;50.842;0.166;2023-03-14T13:56:29;10.20;61.60
15630;DHT22;7914;50.842;0.166;2023-03-14T13:58:56;10.30;57.00
15630;DHT22;7914;50.842;0.166;2023-03-14T14:01:32;10.40;60.20
15630;DHT22;7914;50.842;0.166;2023-03-14T14:04:15;10.30;58.70
15630;DHT22;7914;50.842;0.166;2023-03-14T14:06:50;10.20;60.20
15630;DHT22;7914;50.842;0.166;2023-03-14T14:09:24;10.30;58.70
15630;DHT22;7914;50.842;0.166;2023-03-14T14:11:58;10.10;60.40
15630;DHT22;7914;50.842;0.166;2023-03-14T14:14:36;10.10;62.50
15630;DHT22;7914;50.842;0.166;2023-03-14T14:17:10;10.00;61.60
15630;DHT22;7914;50.842;0.166;2023-03-14T14:19:38;10.00;59.90
15630;DHT22;7914;50.842;0.166;2023-03-14T14:22:06;9.90;58.80
15630;DHT22;7914;50.842;0.166;2023-03-14T14:24:35;9.70;59.70
15630;DHT22;7914;50.842;0.166;2023-03-14T14:27:18;9.50;61.60
15630;DHT22;7914;50.842;0.166;2023-03-14T14:29:44;9.40;61.70
15630;DHT22;7914;50.842;0.166;2023-03-14T14:32:21;9.60;61.20
15630;DHT22;7914;50.842;0.166;2023-03-14T14:37:29;9.80;61.30
15630;DHT22;7914;50.842;0.166;2023-03-14T14:40:10;9.70;60.10
15630;DHT22;7914;50.842;0.166;2023-03-14T14:42:41;9.70;60.40
15630;DHT22;7914;50.842;0.166;2023-03-14T14:45:14;9.60;62.10
15630;DHT22;7914;50.842;0.166;2023-03-14T14:47:53;9.60;61.70
15630;DHT22;7914;50.842;0.166;2023-03-14T14:50:34;9.70;61.60
15630;DHT22;7914;50.842;0.166;2023-03-14T14:53:13;9.70;60.40
15630;DHT22;7914;50.842;0.166;2023-03-14T14:55:53;9.60;62.20
15630;DHT22;7914;50.842;0.166;2023-03-14T14:58:29;9.60;63.70
15630;DHT22;7914;50.842;0.166;2023-03-14T15:01:42;9.60;60.70
15630;DHT22;7914;50.842;0.166;2023-03-14T15:03:46;9.60;60.10
15630;DHT22;7914;50.842;0.166;2023-03-14T15:06:16;9.70;59.90
15630;DHT22;7914;50.842;0.166;2023-03-14T15:08:46;9.90;59.10
15630;DHT22;7914;50.842;0.166;2023-03-14T15:11:21;9.90;58.50
15630;DHT22;7914;50.842;0.166;2023-03-14T15:13:48;10.00;59.20
15630;DHT22;7914;50.842;0.166;2023-03-14T15:16:17;9.90;58.20
15630;DHT22;7914;50.842;0.166;2023-03-14T15:18:42;9.90;57.80
15630;DHT22;7914;50.842;0.166;2023-03-14T15:21:10;9.80;59.40
15630;DHT22;7914;50.842;0.166;2023-03-14T15:23:36;9.70;60.60
15630;DHT22;7914;50.842;0.166;2023-03-14T15:26:04;9.50;58.20
15630;DHT22;7914;50.842;0.166;2023-03-14T15:28:30;9.30;58.90
15630;DHT22;7914;50.842;0.166;2023-03-14T15:30:58;9.10;57.30
15630;DHT22;7914;50.842;0.166;2023-03-14T15:33:25;9.10;57.10
15630;DHT22;7914;50.842;0.166;2023-03-14T15:35:51;9.10;58.60
15630;DHT22;7914;50.842;0.166;2023-03-14T15:38:20;9.20;57.90
15630;DHT22;7914;50.842;0.166;2023-03-14T15:40:48;9.30;58.80
15630;DHT22;7914;50.842;0.166;2023-03-14T15:43:15;9.40;58.10
15630;DHT22;7914;50.842;0.166;2023-03-14T15:45:41;9.30;58.80
15630;DHT22;7914;50.842;0.166;2023-03-14T15:48:16;9.30;57.40
15630;DHT22;7914;50.842;0.166;2023-03-14T15:50:42;9.20;58.70
15630;DHT22;7914;50.842;0.166;2023-03-14T15:53:08;9.30;59.10
15630;DHT22;7914;50.842;0.166;2023-03-14T15:55:34;9.10;59.00
15630;DHT22;7914;50.842;0.166;2023-03-14T15:58:00;9.20;59.50
15630;DHT22;7914;50.842;0.166;2023-03-14T16:00:28;9.30;58.00
15630;DHT22;7914;50.842;0.166;2023-03-14T16:02:55;9.30;58.60
15630;DHT22;7914;50.842;0.166;2023-03-14T16:05:22;9.30;59.00
15630;DHT22;7914;50.842;0.166;2023-03-14T16:07:47;9.40;56.60
15630;DHT22;7914;50.842;0.166;2023-03-14T16:10:14;9.40;57.60
15630;DHT22;7914;50.842;0.166;2023-03-14T16:12:41;9.40;58.50
15630;DHT22;7914;50.842;0.166;2023-03-14T16:15:08;9.40;58.60
15630;DHT22;7914;50.842;0.166;2023-03-14T16:17:34;9.10;58.50
15630;DHT22;7914;50.842;0.166;2023-03-14T16:20:00;9.10;60.30
15630;DHT22;7914;50.842;0.166;2023-03-14T16:22:27;9.10;60.30
15630;DHT22;7914;50.842;0.166;2023-03-14T16:24:55;9.00;61.60
15630;DHT22;7914;50.842;0.166;2023-03-14T16:27:20;9.00;62.50
15630;DHT22;7914;50.842;0.166;2023-03-14T16:29:46;8.80;62.10
15630;DHT22;7914;50.842;0.166;2023-03-14T16:32:13;8.50;64.50
15630;DHT22;7914;50.842;0.166;2023-03-14T16:34:39;8.40;64.90
15630;DHT22;7914;50.842;0.166;2023-03-14T16:37:05;8.30;65.30
15630;DHT22;7914;50.842;0.166;2023-03-14T16:39:30;8.30;65.80
15630;DHT22;7914;50.842;0.166;2023-03-14T16:41:57;8.20;67.40
15630;DHT22;7914;50.842;0.166;2023-03-14T16:44:23;8.30;67.70
15630;DHT22;7914;50.842;0.166;2023-03-14T16:46:49;8.30;67.60
15630;DHT22;7914;50.842;0.166;2023-03-14T16:49:15;8.20;68.70
15630;DHT22;7914;50.842;0.166;2023-03-14T16:51:41;8.30;69.90
15630;DHT22;7914;50.842;0.166;2023-03-14T16:54:07;8.30;72.10
15630;DHT22;7914;50.842;0.166;2023-03-14T16:56:33;8.40;73.70
15630;DHT22;7914;50.842;0.166;2023-03-14T16:58:59;8.30;75.70
15630;DHT22;7914;50.842;0.166;2023-03-14T17:01:26;8.30;76.70
15630;DHT22;7914;50.842;0.166;2023-03-14T17:03:52;8.20;77.90
15630;DHT22;7914;50.842;0.166;2023-03-14T17:08:45;8.20;78.60
15630;DHT22;7914;50.842;0.166;2023-03-14T17:11:11;8.10;79.10